sensor_id;sensor_type;location;lat;lon;timestamp;P1;durP1;ratioP1;P2;durP2;ratioP2
5690;SDS011;2870;42.680;23.364;2023-04-26T00:02:19;12.13;;;9.00;;
5690;SDS011;2870;42.680;23.364;2023-04-26T00:04:49;15.30;;;10.37;;
5690;SDS011;2870;42.680;23.364;2023-04-26T00:07:19;19.23;;;12.50;;
5690;SDS011;2870;42.680;23.364;2023-04-26T00:09:46;16.70;;;11.60;;
5690;SDS011;2870;42.680;23.364;2023-04-26T00:12:13;15.53;;;10.43;;
5690;SDS011;2870;42.680;23.364;2023-04-26T00:14:39;17.30;;;12.47;;
5690;SDS011;2870;42.680;23.364;2023-04-26T00:17:06;17.47;;;11.00;;
5690;SDS011;2870;42.680;23.364;2023-04-26T00:19:34;20.23;;;13.60;;
5690;SDS011;2870;42.680;23.364;2023-04-26T00:22:02;13.90;;;10.43;;
5690;SDS011;2870;42.680;23.364;2023-04-26T00:24:29;26.40;;;19.53;;
5690;SDS011;2870;42.680;23.364;2023-04-26T00:26:56;29.33;;;18.93;;
5690;SDS011;2870;42.680;23.364;2023-04-26T00:29:24;22.23;;;15.40;;
5690;SDS011;2870;42.680;23.364;2023-04-26T00:31:51;18.70;;;12.60;;
5690;SDS011;2870;42.680;23.364;2023-04-26T00:34:18;17.40;;;12.43;;
5690;SDS011;2870;42.680;23.364;2023-04-26T00:36:46;20.60;;;13.07;;
5690;SDS011;2870;42.680;23.364;2023-04-26T00:39:14;21.97;;;12.87;;
5690;SDS011;2870;42.680;23.364;2023-04-26T00:41:41;17.33;;;11.47;;
5690;SDS011;2870;42.680;23.364;2023-04-26T00:44:07;17.73;;;11.10;;
5690;SDS011;2870;42.680;23.364;2023-04-26T00:46:34;17.23;;;11.90;;
5690;SDS011;2870;42.680;23.364;2023-04-26T00:49:01;14.93;;;11.30;;
5690;SDS011;2870;42.680;23.364;2023-04-26T00:51:28;23.17;;;12.23;;
5690;SDS011;2870;42.680;23.364;2023-04-26T00:53:56;19.40;;;11.23;;
5690;SDS011;2870;42.680;23.364;2023-04-26T00:56:26;22.77;;;11.77;;
5690;SDS011;2870;42.680;23.364;2023-04-26T00:58:53;18.30;;;12.60;;
5690;SDS011;2870;42.680;23.364;2023-04-26T01:01:20;20.97;;;14.07;;
5690;SDS011;2870;42.680;23.364;2023-04-26T01:03:47;20.77;;;13.43;;
5690;SDS011;2870;42.680;23.364;2023-04-26T01:06:14;23.43;;;15.17;;
5690;SDS011;2870;42.680;23.364;2023-04-26T01:08:41;21.63;;;14.57;;
5690;SDS011;2870;42.680;23.364;2023-04-26T01:11:10;20.57;;;14.10;;
5690;SDS011;2870;42.680;23.364;2023-04-26T01:13:37;23.27;;;15.53;;
5690;SDS011;2870;42.680;23.364;2023-04-26T01:16:06;25.83;;;15.80;;
5690;SDS011;2870;42.680;23.364;2023-04-26T01:18:33;25.63;;;16.50;;
5690;SDS011;2870;42.680;23.364;2023-04-26T01:21:00;23.63;;;15.10;;
5690;SDS011;2870;42.680;23.364;2023-04-26T01:23:30;25.63;;;15.80;;
5690;SDS011;2870;42.680;23.364;2023-04-26T01:25:58;25.93;;;15.70;;
5690;SDS011;2870;42.680;23.364;2023-04-26T01:28:25;26.93;;;16.43;;
5690;SDS011;2870;42.680;23.364;2023-04-26T01:30:51;23.63;;;14.70;;
5690;SDS011;2870;42.680;23.364;2023-04-26T01:33:18;26.60;;;17.10;;
5690;SDS011;2870;42.680;23.364;2023-04-26T01:35:45;27.13;;;16.17;;
5690;SDS011;2870;42.680;23.364;2023-04-26T01:38:12;27.60;;;16.47;;
5690;SDS011;2870;42.680;23.364;2023-04-26T01:40:40;23.70;;;16.17;;
5690;SDS011;2870;42.680;23.364;2023-04-26T01:43:10;27.47;;;16.60;;
5690;SDS011;2870;42.680;23.364;2023-04-26T01:45:37;28.10;;;17.30;;
5690;SDS011;2870;42.680;23.364;2023-04-26T01:48:04;24.80;;;15.40;;
5690;SDS011;2870;42.680;23.364;2023-04-26T01:50:31;21.27;;;14.27;;
5690;SDS011;2870;42.680;23.364;2023-04-26T01:52:58;24.77;;;16.87;;
5690;SDS011;2870;42.680;23.364;2023-04-26T01:55:25;24.43;;;15.90;;
5690;SDS011;2870;42.680;23.364;2023-04-26T01:57:53;32.97;;;16.50;;
5690;SDS011;2870;42.680;23.364;2023-04-26T02:00:20;25.60;;;14.80;;
5690;SDS011;2870;42.680;23.364;2023-04-26T02:02:46;29.43;;;15.77;;
5690;SDS011;2870;42.680;23.364;2023-04-26T02:05:13;24.43;;;15.50;;
5690;SDS011;2870;42.680;23.364;2023-04-26T02:07:40;25.10;;;15.93;;
5690;SDS011;2870;42.680;23.364;2023-04-26T02:10:07;26.47;;;17.57;;
5690;SDS011;2870;42.680;23.364;2023-04-26T02:12:34;25.70;;;16.30;;
5690;SDS011;2870;42.680;23.364;2023-04-26T02:15:02;22.77;;;15.43;;
5690;SDS011;2870;42.680;23.364;2023-04-26T02:17:31;22.30;;;14.70;;
5690;SDS011;2870;42.680;23.364;2023-04-26T02:19:58;30.23;;;16.87;;
5690;SDS011;2870;42.680;23.364;2023-04-26T02:22:24;37.17;;;25.57;;
5690;SDS011;2870;42.680;23.364;2023-04-26T02:24:51;32.93;;;18.40;;
5690;SDS011;2870;42.680;23.364;2023-04-26T02:27:18;25.17;;;15.73;;
5690;SDS011;2870;42.680;23.364;2023-04-26T02:29:45;33.37;;;18.70;;
5690;SDS011;2870;42.680;23.364;2023-04-26T02:32:14;23.73;;;16.10;;
5690;SDS011;2870;42.680;23.364;2023-04-26T02:34:41;26.33;;;16.80;;
5690;SDS011;2870;42.680;23.364;2023-04-26T02:37:09;26.03;;;16.17;;
5690;SDS011;2870;42.680;23.364;2023-04-26T02:39:36;24.30;;;15.67;;
5690;SDS011;2870;42.680;23.364;2023-04-26T02:42:07;24.80;;;14.30;;
5690;SDS011;2870;42.680;23.364;2023-04-26T02:44:34;20.67;;;14.20;;
5690;SDS011;2870;42.680;23.364;2023-04-26T02:47:01;24.93;;;15.53;;
5690;SDS011;2870;42.680;23.364;2023-04-26T02:49:29;24.00;;;14.73;;
5690;SDS011;2870;42.680;23.364;2023-04-26T02:51:56;29.00;;;14.50;;
5690;SDS011;2870;42.680;23.364;2023-04-26T02:54:23;19.03;;;12.63;;
5690;SDS011;2870;42.680;23.364;2023-04-26T02:56:49;18.73;;;12.13;;
5690;SDS011;2870;42.680;23.364;2023-04-26T02:59:16;18.87;;;12.67;;
5690;SDS011;2870;42.680;23.364;2023-04-26T03:01:43;23.37;;;13.33;;
5690;SDS011;2870;42.680;23.364;2023-04-26T03:04:10;21.30;;;12.70;;
5690;SDS011;2870;42.680;23.364;2023-04-26T03:06:38;20.20;;;12.07;;
5690;SDS011;2870;42.680;23.364;2023-04-26T03:09:05;20.00;;;12.07;;
5690;SDS011;2870;42.680;23.364;2023-04-26T03:11:31;19.27;;;12.60;;
5690;SDS011;2870;42.680;23.364;2023-04-26T03:13:58;21.57;;;13.40;;
5690;SDS011;2870;42.680;23.364;2023-04-26T03:16:26;19.10;;;12.70;;
5690;SDS011;2870;42.680;23.364;2023-04-26T03:18:53;20.70;;;12.00;;
5690;SDS011;2870;42.680;23.364;2023-04-26T03:21:20;19.83;;;12.43;;
5690;SDS011;2870;42.680;23.364;2023-04-26T03:23:48;16.77;;;12.53;;
5690;SDS011;2870;42.680;23.364;2023-04-26T03:26:15;17.40;;;11.90;;
5690;SDS011;2870;42.680;23.364;2023-04-26T03:28:41;18.20;;;12.20;;
5690;SDS011;2870;42.680;23.364;2023-04-26T03:31:08;20.00;;;11.77;;
5690;SDS011;2870;42.680;23.364;2023-04-26T03:33:35;18.23;;;12.70;;
5690;SDS011;2870;42.680;23.364;2023-04-26T03:36:03;18.47;;;12.00;;
5690;SDS011;2870;42.680;23.364;2023-04-26T03:38:30;16.00;;;11.00;;
5690;SDS011;2870;42.680;23.364;2023-04-26T03:40:58;17.83;;;11.27;;
5690;SDS011;2870;42.680;23.364;2023-04-26T03:43:25;17.60;;;11.70;;
5690;SDS011;2870;42.680;23.364;2023-04-26T03:45:52;16.37;;;10.93;;
5690;SDS011;2870;42.680;23.364;2023-04-26T03:48:19;18.27;;;10.87;;
5690;SDS011;2870;42.680;23.364;2023-04-26T03:50:45;15.80;;;10.77;;
5690;SDS011;2870;42.680;23.364;2023-04-26T03:53:12;17.40;;;10.97;;
5690;SDS011;2870;42.680;23.364;2023-04-26T03:55:39;15.50;;;10.70;;
5690;SDS011;2870;42.680;23.364;2023-04-26T03:58:08;18.50;;;11.50;;
5690;SDS011;2870;42.680;23.364;2023-04-26T04:00:36;14.33;;;10.30;;
5690;SDS011;2870;42.680;23.364;2023-04-26T04:03:03;15.60;;;10.60;;
5690;SDS011;2870;42.680;23.364;2023-04-26T04:05:30;15.23;;;10.70;;
5690;SDS011;2870;42.680;23.364;2023-04-26T04:07:56;14.80;;;10.77;;
5690;SDS011;2870;42.680;23.364;2023-04-26T04:10:23;15.17;;;11.03;;
5690;SDS011;2870;42.680;23.364;2023-04-26T04:12:50;16.10;;;11.07;;
5690;SDS011;2870;42.680;23.364;2023-04-26T04:15:19;16.30;;;11.33;;
5690;SDS011;2870;42.680;23.364;2023-04-26T04:17:47;19.23;;;11.10;;
5690;SDS011;2870;42.680;23.364;2023-04-26T04:20:14;17.70;;;10.30;;
5690;SDS011;2870;42.680;23.364;2023-04-26T04:22:41;29.60;;;12.90;;
5690;SDS011;2870;42.680;23.364;2023-04-26T04:25:08;20.43;;;12.00;;
5690;SDS011;2870;42.680;23.364;2023-04-26T04:27:35;20.60;;;11.53;;
5690;SDS011;2870;42.680;23.364;2023-04-26T04:30:03;15.33;;;10.57;;
5690;SDS011;2870;42.680;23.364;2023-04-26T04:32:34;32.03;;;10.73;;
5690;SDS011;2870;42.680;23.364;2023-04-26T04:35:03;19.40;;;10.83;;
5690;SDS011;2870;42.680;23.364;2023-04-26T04:37:30;16.00;;;10.73;;
5690;SDS011;2870;42.680;23.364;2023-04-26T04:39:59;20.17;;;11.50;;
5690;SDS011;2870;42.680;23.364;2023-04-26T04:42:25;15.67;;;9.60;;
5690;SDS011;2870;42.680;23.364;2023-04-26T04:44:53;11.97;;;8.60;;
5690;SDS011;2870;42.680;23.364;2023-04-26T04:47:20;11.07;;;8.10;;
5690;SDS011;2870;42.680;23.364;2023-04-26T04:49:48;13.63;;;8.50;;
5690;SDS011;2870;42.680;23.364;2023-04-26T04:52:17;14.27;;;9.13;;
5690;SDS011;2870;42.680;23.364;2023-04-26T04:54:45;15.07;;;8.83;;
5690;SDS011;2870;42.680;23.364;2023-04-26T04:57:12;11.67;;;8.30;;
5690;SDS011;2870;42.680;23.364;2023-04-26T04:59:40;13.83;;;8.10;;
5690;SDS011;2870;42.680;23.364;2023-04-26T05:02:07;13.70;;;8.40;;
5690;SDS011;2870;42.680;23.364;2023-04-26T05:04:34;21.23;;;8.83;;
5690;SDS011;2870;42.680;23.364;2023-04-26T05:07:02;12.70;;;8.40;;
5690;SDS011;2870;42.680;23.364;2023-04-26T05:09:30;11.57;;;7.80;;
5690;SDS011;2870;42.680;23.364;2023-04-26T05:11:57;11.90;;;7.40;;
5690;SDS011;2870;42.680;23.364;2023-04-26T05:14:24;12.67;;;8.60;;
5690;SDS011;2870;42.680;23.364;2023-04-26T05:16:50;15.63;;;9.43;;
5690;SDS011;2870;42.680;23.364;2023-04-26T05:19:17;14.17;;;8.60;;
5690;SDS011;2870;42.680;23.364;2023-04-26T05:21:44;11.77;;;8.67;;
5690;SDS011;2870;42.680;23.364;2023-04-26T05:24:12;26.40;;;8.70;;
5690;SDS011;2870;42.680;23.364;2023-04-26T05:26:39;13.63;;;8.53;;
5690;SDS011;2870;42.680;23.364;2023-04-26T05:29:06;11.00;;;8.00;;
5690;SDS011;2870;42.680;23.364;2023-04-26T05:31:33;25.93;;;8.27;;
5690;SDS011;2870;42.680;23.364;2023-04-26T05:34:00;13.53;;;9.57;;
5690;SDS011;2870;42.680;23.364;2023-04-26T05:36:28;14.50;;;10.00;;
5690;SDS011;2870;42.680;23.364;2023-04-26T05:38:54;13.97;;;8.87;;
5690;SDS011;2870;42.680;23.364;2023-04-26T05:41:23;13.10;;;8.30;;
5690;SDS011;2870;42.680;23.364;2023-04-26T05:43:50;13.73;;;8.13;;
5690;SDS011;2870;42.680;23.364;2023-04-26T05:46:16;14.87;;;9.90;;
5690;SDS011;2870;42.680;23.364;2023-04-26T05:48:43;13.20;;;10.27;;
5690;SDS011;2870;42.680;23.364;2023-04-26T05:51:10;21.40;;;9.47;;
5690;SDS011;2870;42.680;23.364;2023-04-26T05:53:37;11.90;;;8.13;;
5690;SDS011;2870;42.680;23.364;2023-04-26T05:56:04;11.23;;;8.83;;
5690;SDS011;2870;42.680;23.364;2023-04-26T05:58:33;11.07;;;8.90;;
5690;SDS011;2870;42.680;23.364;2023-04-26T06:00:59;12.37;;;7.83;;
5690;SDS011;2870;42.680;23.364;2023-04-26T06:03:26;12.80;;;9.17;;
5690;SDS011;2870;42.680;23.364;2023-04-26T06:05:53;18.00;;;9.50;;
5690;SDS011;2870;42.680;23.364;2023-04-26T06:08:20;18.47;;;10.07;;
5690;SDS011;2870;42.680;23.364;2023-04-26T06:10:46;14.10;;;9.93;;
5690;SDS011;2870;42.680;23.364;2023-04-26T06:13:13;13.00;;;9.70;;
5690;SDS011;2870;42.680;23.364;2023-04-26T06:15:41;15.53;;;9.47;;
5690;SDS011;2870;42.680;23.364;2023-04-26T06:18:08;12.60;;;9.57;;
5690;SDS011;2870;42.680;23.364;2023-04-26T06:20:35;12.80;;;9.20;;
5690;SDS011;2870;42.680;23.364;2023-04-26T06:23:02;19.13;;;11.30;;
5690;SDS011;2870;42.680;23.364;2023-04-26T06:25:28;14.30;;;10.23;;
5690;SDS011;2870;42.680;23.364;2023-04-26T06:27:55;25.50;;;10.60;;
5690;SDS011;2870;42.680;23.364;2023-04-26T06:30:22;19.43;;;11.00;;
5690;SDS011;2870;42.680;23.364;2023-04-26T06:32:51;17.40;;;10.30;;
5690;SDS011;2870;42.680;23.364;2023-04-26T06:35:18;15.23;;;9.80;;
5690;SDS011;2870;42.680;23.364;2023-04-26T06:37:45;14.80;;;9.67;;
5690;SDS011;2870;42.680;23.364;2023-04-26T06:40:12;27.27;;;9.30;;
5690;SDS011;2870;42.680;23.364;2023-04-26T06:42:40;20.10;;;7.70;;
5690;SDS011;2870;42.680;23.364;2023-04-26T06:45:07;12.30;;;8.00;;
5690;SDS011;2870;42.680;23.364;2023-04-26T06:47:35;16.87;;;7.17;;
5690;SDS011;2870;42.680;23.364;2023-04-26T06:50:04;10.30;;;7.53;;
5690;SDS011;2870;42.680;23.364;2023-04-26T06:52:31;13.20;;;8.57;;
5690;SDS011;2870;42.680;23.364;2023-04-26T06:54:59;12.47;;;8.40;;
5690;SDS011;2870;42.680;23.364;2023-04-26T06:57:27;14.80;;;8.10;;
5690;SDS011;2870;42.680;23.364;2023-04-26T06:59:53;15.00;;;8.00;;
5690;SDS011;2870;42.680;23.364;2023-04-26T07:02:21;15.70;;;9.57;;
5690;SDS011;2870;42.680;23.364;2023-04-26T07:04:48;12.60;;;8.47;;
5690;SDS011;2870;42.680;23.364;2023-04-26T07:07:16;14.07;;;9.53;;
5690;SDS011;2870;42.680;23.364;2023-04-26T07:09:43;15.23;;;8.37;;
5690;SDS011;2870;42.680;23.364;2023-04-26T07:12:10;12.90;;;8.30;;
5690;SDS011;2870;42.680;23.364;2023-04-26T07:14:37;11.50;;;8.47;;
5690;SDS011;2870;42.680;23.364;2023-04-26T07:17:05;13.70;;;8.83;;
5690;SDS011;2870;42.680;23.364;2023-04-26T07:19:32;13.03;;;9.53;;
5690;SDS011;2870;42.680;23.364;2023-04-26T07:21:59;12.27;;;9.27;;
5690;SDS011;2870;42.680;23.364;2023-04-26T07:24:28;15.70;;;8.37;;
5690;SDS011;2870;42.680;23.364;2023-04-26T07:26:55;13.53;;;6.87;;
5690;SDS011;2870;42.680;23.364;2023-04-26T07:29:22;10.00;;;7.80;;
5690;SDS011;2870;42.680;23.364;2023-04-26T07:31:49;10.30;;;7.47;;
5690;SDS011;2870;42.680;23.364;2023-04-26T07:34:16;10.80;;;8.13;;
5690;SDS011;2870;42.680;23.364;2023-04-26T07:36:42;11.07;;;7.77;;
5690;SDS011;2870;42.680;23.364;2023-04-26T07:39:09;15.27;;;8.33;;
5690;SDS011;2870;42.680;23.364;2023-04-26T07:41:38;18.17;;;10.57;;
5690;SDS011;2870;42.680;23.364;2023-04-26T07:44:05;14.33;;;8.70;;
5690;SDS011;2870;42.680;23.364;2023-04-26T07:46:32;19.80;;;8.30;;
5690;SDS011;2870;42.680;23.364;2023-04-26T07:48:59;13.03;;;7.53;;
5690;SDS011;2870;42.680;23.364;2023-04-26T07:51:25;10.37;;;8.43;;
5690;SDS011;2870;42.680;23.364;2023-04-26T07:53:52;10.50;;;7.50;;
5690;SDS011;2870;42.680;23.364;2023-04-26T07:56:20;13.07;;;9.03;;
5690;SDS011;2870;42.680;23.364;2023-04-26T07:58:49;12.50;;;8.63;;
5690;SDS011;2870;42.680;23.364;2023-04-26T08:01:16;11.50;;;7.73;;
5690;SDS011;2870;42.680;23.364;2023-04-26T08:03:43;11.20;;;7.97;;
5690;SDS011;2870;42.680;23.364;2023-04-26T08:06:09;11.97;;;7.30;;
5690;SDS011;2870;42.680;23.364;2023-04-26T08:08:36;10.43;;;7.37;;
5690;SDS011;2870;42.680;23.364;2023-04-26T08:11:08;10.80;;;8.40;;
5690;SDS011;2870;42.680;23.364;2023-04-26T08:13:36;10.37;;;8.03;;
5690;SDS011;2870;42.680;23.364;2023-04-26T08:16:04;12.00;;;7.93;;
5690;SDS011;2870;42.680;23.364;2023-04-26T08:18:31;14.80;;;8.20;;
5690;SDS011;2870;42.680;23.364;2023-04-26T08:20:58;11.27;;;7.50;;
5690;SDS011;2870;42.680;23.364;2023-04-26T08:23:25;11.40;;;7.73;;
5690;SDS011;2870;42.680;23.364;2023-04-26T08:25:52;13.57;;;8.33;;
5690;SDS011;2870;42.680;23.364;2023-04-26T08:28:19;13.30;;;8.70;;
5690;SDS011;2870;42.680;23.364;2023-04-26T08:30:46;11.30;;;7.50;;
5690;SDS011;2870;42.680;23.364;2023-04-26T08:33:14;11.97;;;7.90;;
5690;SDS011;2870;42.680;23.364;2023-04-26T08:35:43;9.30;;;7.30;;
5690;SDS011;2870;42.680;23.364;2023-04-26T08:38:10;13.40;;;8.57;;
5690;SDS011;2870;42.680;23.364;2023-04-26T08:40:37;11.23;;;7.70;;
5690;SDS011;2870;42.680;23.364;2023-04-26T08:43:07;11.30;;;7.77;;
5690;SDS011;2870;42.680;23.364;2023-04-26T08:45:36;9.47;;;6.90;;
5690;SDS011;2870;42.680;23.364;2023-04-26T08:48:06;9.93;;;6.53;;
5690;SDS011;2870;42.680;23.364;2023-04-26T08:50:40;10.27;;;7.53;;
5690;SDS011;2870;42.680;23.364;2023-04-26T08:53:08;11.10;;;7.70;;
5690;SDS011;2870;42.680;23.364;2023-04-26T08:55:39;10.13;;;6.10;;
5690;SDS011;2870;42.680;23.364;2023-04-26T08:58:06;10.30;;;7.00;;
5690;SDS011;2870;42.680;23.364;2023-04-26T09:00:34;17.50;;;6.63;;
5690;SDS011;2870;42.680;23.364;2023-04-26T09:03:01;10.63;;;6.50;;
5690;SDS011;2870;42.680;23.364;2023-04-26T09:05:28;8.57;;;6.27;;
5690;SDS011;2870;42.680;23.364;2023-04-26T09:07:56;10.80;;;7.30;;
5690;SDS011;2870;42.680;23.364;2023-04-26T09:10:26;13.60;;;7.17;;
5690;SDS011;2870;42.680;23.364;2023-04-26T09:12:53;10.00;;;6.60;;
5690;SDS011;2870;42.680;23.364;2023-04-26T09:15:21;9.23;;;6.90;;
5690;SDS011;2870;42.680;23.364;2023-04-26T09:17:50;10.83;;;7.47;;
5690;SDS011;2870;42.680;23.364;2023-04-26T09:20:18;11.80;;;7.00;;
5690;SDS011;2870;42.680;23.364;2023-04-26T09:22:46;8.30;;;6.03;;
5690;SDS011;2870;42.680;23.364;2023-04-26T09:25:17;8.00;;;6.17;;
5690;SDS011;2870;42.680;23.364;2023-04-26T09:27:45;8.07;;;5.80;;
5690;SDS011;2870;42.680;23.364;2023-04-26T09:30:13;8.47;;;5.40;;
5690;SDS011;2870;42.680;23.364;2023-04-26T09:32:45;9.70;;;6.03;;
5690;SDS011;2870;42.680;23.364;2023-04-26T09:35:24;13.37;;;6.13;;
5690;SDS011;2870;42.680;23.364;2023-04-26T09:37:56;14.30;;;5.57;;
5690;SDS011;2870;42.680;23.364;2023-04-26T09:40:29;9.73;;;5.77;;
5690;SDS011;2870;42.680;23.364;2023-04-26T09:42:58;9.87;;;6.37;;
5690;SDS011;2870;42.680;23.364;2023-04-26T09:45:26;14.73;;;6.80;;
5690;SDS011;2870;42.680;23.364;2023-04-26T09:47:54;8.93;;;5.97;;
5690;SDS011;2870;42.680;23.364;2023-04-26T09:50:25;12.83;;;5.80;;
5690;SDS011;2870;42.680;23.364;2023-04-26T09:52:53;10.10;;;5.53;;
5690;SDS011;2870;42.680;23.364;2023-04-26T09:55:31;9.00;;;7.30;;
5690;SDS011;2870;42.680;23.364;2023-04-26T09:57:58;12.40;;;5.60;;
5690;SDS011;2870;42.680;23.364;2023-04-26T10:00:25;8.70;;;5.77;;
5690;SDS011;2870;42.680;23.364;2023-04-26T10:02:53;7.43;;;5.67;;
5690;SDS011;2870;42.680;23.364;2023-04-26T10:05:21;13.50;;;5.13;;
5690;SDS011;2870;42.680;23.364;2023-04-26T10:07:48;9.97;;;5.23;;
5690;SDS011;2870;42.680;23.364;2023-04-26T10:10:16;7.80;;;4.87;;
5690;SDS011;2870;42.680;23.364;2023-04-26T10:12:44;7.63;;;5.20;;
5690;SDS011;2870;42.680;23.364;2023-04-26T10:15:11;7.80;;;4.50;;
5690;SDS011;2870;42.680;23.364;2023-04-26T10:17:38;6.60;;;4.47;;
5690;SDS011;2870;42.680;23.364;2023-04-26T10:20:07;8.67;;;5.00;;
5690;SDS011;2870;42.680;23.364;2023-04-26T10:22:39;6.80;;;4.80;;
5690;SDS011;2870;42.680;23.364;2023-04-26T10:25:10;5.87;;;3.70;;
5690;SDS011;2870;42.680;23.364;2023-04-26T10:27:50;6.10;;;3.67;;
5690;SDS011;2870;42.680;23.364;2023-04-26T10:30:18;6.30;;;4.13;;
5690;SDS011;2870;42.680;23.364;2023-04-26T10:38:34;8.20;;;4.90;;
5690;SDS011;2870;42.680;23.364;2023-04-26T10:44:35;8.07;;;3.97;;
5690;SDS011;2870;42.680;23.364;2023-04-26T10:47:25;6.53;;;4.40;;
5690;SDS011;2870;42.680;23.364;2023-04-26T10:50:05;7.13;;;4.23;;
5690;SDS011;2870;42.680;23.364;2023-04-26T10:52:33;6.10;;;4.07;;
5690;SDS011;2870;42.680;23.364;2023-04-26T10:55:01;5.20;;;3.33;;
5690;SDS011;2870;42.680;23.364;2023-04-26T10:57:45;6.40;;;4.00;;
5690;SDS011;2870;42.680;23.364;2023-04-26T11:00:17;7.00;;;4.00;;
5690;SDS011;2870;42.680;23.364;2023-04-26T11:02:54;7.40;;;4.27;;
5690;SDS011;2870;42.680;23.364;2023-04-26T11:05:35;7.03;;;4.13;;
5690;SDS011;2870;42.680;23.364;2023-04-26T11:08:05;6.00;;;3.63;;
5690;SDS011;2870;42.680;23.364;2023-04-26T11:10:36;8.97;;;4.47;;
5690;SDS011;2870;42.680;23.364;2023-04-26T11:13:04;5.20;;;3.60;;
5690;SDS011;2870;42.680;23.364;2023-04-26T11:15:31;6.33;;;4.33;;
5690;SDS011;2870;42.680;23.364;2023-04-26T11:18:02;9.60;;;5.33;;
5690;SDS011;2870;42.680;23.364;2023-04-26T11:20:30;5.90;;;4.20;;
5690;SDS011;2870;42.680;23.364;2023-04-26T11:22:57;5.90;;;3.70;;
5690;SDS011;2870;42.680;23.364;2023-04-26T11:25:25;10.97;;;4.30;;
5690;SDS011;2870;42.680;23.364;2023-04-26T11:27:57;8.00;;;3.80;;
5690;SDS011;2870;42.680;23.364;2023-04-26T11:30:26;7.50;;;4.13;;
5690;SDS011;2870;42.680;23.364;2023-04-26T11:32:54;6.33;;;3.83;;
5690;SDS011;2870;42.680;23.364;2023-04-26T11:35:22;6.10;;;3.80;;
5690;SDS011;2870;42.680;23.364;2023-04-26T11:37:50;6.00;;;4.40;;
5690;SDS011;2870;42.680;23.364;2023-04-26T11:40:17;7.37;;;4.50;;
5690;SDS011;2870;42.680;23.364;2023-04-26T11:42:44;9.67;;;5.20;;
5690;SDS011;2870;42.680;23.364;2023-04-26T11:45:11;10.00;;;5.03;;
5690;SDS011;2870;42.680;23.364;2023-04-26T11:47:40;6.83;;;4.93;;
5690;SDS011;2870;42.680;23.364;2023-04-26T11:50:08;10.37;;;4.10;;
5690;SDS011;2870;42.680;23.364;2023-04-26T11:52:37;5.60;;;3.73;;
5690;SDS011;2870;42.680;23.364;2023-04-26T11:55:06;6.67;;;4.70;;
5690;SDS011;2870;42.680;23.364;2023-04-26T11:57:34;8.33;;;4.13;;
5690;SDS011;2870;42.680;23.364;2023-04-26T12:00:11;12.47;;;4.77;;
5690;SDS011;2870;42.680;23.364;2023-04-26T12:02:42;5.63;;;3.90;;
5690;SDS011;2870;42.680;23.364;2023-04-26T12:05:10;8.73;;;4.67;;
5690;SDS011;2870;42.680;23.364;2023-04-26T12:07:45;6.57;;;4.40;;
5690;SDS011;2870;42.680;23.364;2023-04-26T12:10:15;7.83;;;4.80;;
5690;SDS011;2870;42.680;23.364;2023-04-26T12:12:43;7.10;;;4.50;;
5690;SDS011;2870;42.680;23.364;2023-04-26T12:15:13;7.20;;;4.03;;
5690;SDS011;2870;42.680;23.364;2023-04-26T12:17:50;6.53;;;4.33;;
5690;SDS011;2870;42.680;23.364;2023-04-26T12:20:17;6.83;;;4.70;;
5690;SDS011;2870;42.680;23.364;2023-04-26T12:22:57;7.30;;;4.20;;
5690;SDS011;2870;42.680;23.364;2023-04-26T12:25:24;9.37;;;5.00;;
5690;SDS011;2870;42.680;23.364;2023-04-26T12:27:51;9.97;;;5.00;;
5690;SDS011;2870;42.680;23.364;2023-04-26T12:30:18;5.90;;;4.10;;
5690;SDS011;2870;42.680;23.364;2023-04-26T12:32:45;7.13;;;4.13;;
5690;SDS011;2870;42.680;23.364;2023-04-26T12:35:12;6.00;;;4.37;;
5690;SDS011;2870;42.680;23.364;2023-04-26T12:37:39;7.63;;;4.10;;
5690;SDS011;2870;42.680;23.364;2023-04-26T12:40:08;18.13;;;4.27;;
5690;SDS011;2870;42.680;23.364;2023-04-26T12:42:36;8.87;;;4.00;;
5690;SDS011;2870;42.680;23.364;2023-04-26T12:45:03;10.70;;;3.80;;
5690;SDS011;2870;42.680;23.364;2023-04-26T12:47:32;9.23;;;4.67;;
5690;SDS011;2870;42.680;23.364;2023-04-26T12:49:58;12.33;;;4.00;;
5690;SDS011;2870;42.680;23.364;2023-04-26T12:52:25;9.63;;;4.17;;
5690;SDS011;2870;42.680;23.364;2023-04-26T12:54:52;5.87;;;4.27;;
5690;SDS011;2870;42.680;23.364;2023-04-26T12:57:20;11.03;;;4.83;;
5690;SDS011;2870;42.680;23.364;2023-04-26T12:59:47;7.50;;;5.00;;
5690;SDS011;2870;42.680;23.364;2023-04-26T13:02:14;11.90;;;4.80;;
5690;SDS011;2870;42.680;23.364;2023-04-26T13:04:41;7.13;;;4.37;;
5690;SDS011;2870;42.680;23.364;2023-04-26T13:07:08;8.87;;;4.47;;
5690;SDS011;2870;42.680;23.364;2023-04-26T13:09:35;6.77;;;4.97;;
5690;SDS011;2870;42.680;23.364;2023-04-26T13:12:01;9.10;;;5.80;;
5690;SDS011;2870;42.680;23.364;2023-04-26T13:14:30;10.40;;;5.13;;
5690;SDS011;2870;42.680;23.364;2023-04-26T13:16:57;9.50;;;5.40;;
5690;SDS011;2870;42.680;23.364;2023-04-26T13:19:24;7.70;;;5.20;;
5690;SDS011;2870;42.680;23.364;2023-04-26T13:21:51;7.90;;;4.73;;
5690;SDS011;2870;42.680;23.364;2023-04-26T13:24:18;7.07;;;5.10;;
5690;SDS011;2870;42.680;23.364;2023-04-26T13:26:45;10.90;;;5.70;;
5690;SDS011;2870;42.680;23.364;2023-04-26T13:29:12;11.90;;;5.30;;
5690;SDS011;2870;42.680;23.364;2023-04-26T13:31:40;8.07;;;5.33;;
5690;SDS011;2870;42.680;23.364;2023-04-26T13:34:07;7.47;;;4.80;;
5690;SDS011;2870;42.680;23.364;2023-04-26T13:36:34;9.73;;;5.20;;
5690;SDS011;2870;42.680;23.364;2023-04-26T13:39:01;13.57;;;6.60;;
5690;SDS011;2870;42.680;23.364;2023-04-26T13:41:29;7.70;;;5.27;;
5690;SDS011;2870;42.680;23.364;2023-04-26T13:43:57;8.73;;;5.50;;
5690;SDS011;2870;42.680;23.364;2023-04-26T13:46:25;8.10;;;5.17;;
5690;SDS011;2870;42.680;23.364;2023-04-26T13:48:54;8.73;;;6.10;;
5690;SDS011;2870;42.680;23.364;2023-04-26T13:51:20;8.68;;;4.50;;
5690;SDS011;2870;42.680;23.364;2023-04-26T13:53:49;9.17;;;5.47;;
5690;SDS011;2870;42.680;23.364;2023-04-26T13:56:15;8.20;;;5.77;;
5690;SDS011;2870;42.680;23.364;2023-04-26T13:58:44;6.60;;;5.10;;
5690;SDS011;2870;42.680;23.364;2023-04-26T14:01:11;12.13;;;6.27;;
5690;SDS011;2870;42.680;23.364;2023-04-26T14:03:38;7.40;;;5.27;;
5690;SDS011;2870;42.680;23.364;2023-04-26T14:06:06;7.30;;;6.20;;
5690;SDS011;2870;42.680;23.364;2023-04-26T14:08:33;12.47;;;7.20;;
5690;SDS011;2870;42.680;23.364;2023-04-26T14:11:00;8.30;;;6.27;;
5690;SDS011;2870;42.680;23.364;2023-04-26T14:13:27;10.33;;;7.13;;
5690;SDS011;2870;42.680;23.364;2023-04-26T14:15:54;6.77;;;6.00;;
5690;SDS011;2870;42.680;23.364;2023-04-26T14:18:20;14.37;;;6.63;;
5690;SDS011;2870;42.680;23.364;2023-04-26T14:20:48;9.77;;;6.50;;
5690;SDS011;2870;42.680;23.364;2023-04-26T14:23:16;10.03;;;6.70;;
5690;SDS011;2870;42.680;23.364;2023-04-26T14:25:43;18.23;;;6.70;;
5690;SDS011;2870;42.680;23.364;2023-04-26T14:28:09;7.83;;;6.30;;
5690;SDS011;2870;42.680;23.364;2023-04-26T14:30:36;8.60;;;6.57;;
5690;SDS011;2870;42.680;23.364;2023-04-26T14:33:03;13.00;;;7.60;;
5690;SDS011;2870;42.680;23.364;2023-04-26T14:35:30;9.23;;;6.80;;
5690;SDS011;2870;42.680;23.364;2023-04-26T14:37:57;9.80;;;7.03;;
5690;SDS011;2870;42.680;23.364;2023-04-26T14:40:25;8.40;;;6.77;;
5690;SDS011;2870;42.680;23.364;2023-04-26T14:42:52;14.30;;;6.93;;
5690;SDS011;2870;42.680;23.364;2023-04-26T14:45:18;9.17;;;7.47;;
5690;SDS011;2870;42.680;23.364;2023-04-26T14:47:45;8.73;;;7.00;;
5690;SDS011;2870;42.680;23.364;2023-04-26T14:50:12;10.33;;;6.80;;
5690;SDS011;2870;42.680;23.364;2023-04-26T14:52:39;9.70;;;7.57;;
5690;SDS011;2870;42.680;23.364;2023-04-26T14:55:06;13.40;;;7.80;;
5690;SDS011;2870;42.680;23.364;2023-04-26T14:57:35;11.57;;;6.67;;
5690;SDS011;2870;42.680;23.364;2023-04-26T15:00:01;9.43;;;7.93;;
5690;SDS011;2870;42.680;23.364;2023-04-26T15:02:32;9.43;;;7.37;;